Latest Weather Observations for Redcliffe

IDQ60801

Issued at 3:05 pm EST Friday 25 April 2014 (issued every 30 minutes, with the page automatically refreshed every 10 minutes)

About weather observations | Map of weather stations | Latest weather observations for QLD | Other Formats
Station Details ID: 040958 Name: REDCLIFFE Lat: -27.22 Lon: 153.09 Height: 12.6 m
Data from the previous 72 hours. | See also: Recent months at Redcliffe
Date/Time
EST
Temp
°C
App
Temp
°C
Dew
Point
Rel
Hum
%
Delta-T
°C
Wind Press
QNH
hPa
Press
MSL
hPa
Rain
since 9 am
mm
Dir
 
Spd
km/h
Gust
km/h
Spd
kts
Gust
kts
25/03:00pm 25.3 23.9 17.0 60 5.1 E 20 24 11 13 1015.9 1015.8 0.0
25/02:30pm 25.3 24.2 17.2 61 5.0 E 19 22 10 12 1015.8 - 0.0
25/02:00pm 25.5 25.3 16.6 58 5.5 E 13 15 7 8 1016.0 - 0.0
25/01:30pm 26.1 26.7 16.9 57 5.7 E 9 11 5 6 1016.3 - 0.0
25/01:00pm 25.7 26.0 16.0 55 5.9 ESE 9 11 5 6 1016.5 - 0.0
25/12:30pm 26.0 25.2 14.1 47 7.1 SSE 11 11 6 6 1016.9 - 0.0
25/12:00pm 25.8 25.3 14.9 51 6.5 SE 11 13 6 7 1017.3 1017.2 0.0
25/11:30am 25.9 25.6 16.5 56 5.8 SSE 13 13 7 7 1017.8 - 0.0
25/11:00am 26.2 26.0 16.7 56 5.9 S 13 15 7 8 1018.2 - 0.0
25/10:30am 25.8 25.0 17.2 59 5.4 S 17 19 9 10 1018.4 - 0.0
25/10:00am 24.8 24.0 17.0 62 4.8 S 17 19 9 10 1018.6 - 0.0
25/09:30am 24.0 23.3 17.3 66 4.2 S 17 19 9 10 1018.7 - 0.0
25/09:00am 22.3 22.2 17.0 72 3.2 SSW 13 17 7 9 1018.9 1018.8 0.0
25/08:30am 21.4 21.3 17.0 76 2.7 SW 13 15 7 8 1018.8 - 0.0
25/08:00am 20.5 20.7 16.7 79 2.3 SW 11 15 6 8 1018.4 - 0.0
25/07:30am 19.4 19.5 16.4 83 1.8 SW 11 15 6 8 1018.0 - 0.0
25/07:00am 18.2 18.0 15.8 86 1.4 SW 11 13 6 7 1017.6 - 0.0
25/06:30am 17.6 16.5 15.4 87 1.3 SW 15 17 8 9 1017.0 - 0.0
25/06:00am 17.5 16.7 15.1 86 1.4 SW 13 17 7 9 1016.7 1016.6 0.0
25/05:30am 17.7 16.7 15.5 87 1.3 SW 15 19 8 10 1016.3 - 0.0
25/05:00am 17.8 16.9 15.8 88 1.2 SW 15 19 8 10 1016.0 - 0.0
25/04:30am 17.7 17.1 15.7 88 1.2 SW 13 15 7 8 1015.9 - 0.0
25/04:00am 17.8 16.8 15.6 87 1.3 WSW 15 17 8 9 1015.7 - 0.0
25/03:30am 18.1 17.6 15.9 87 1.3 SW 13 15 7 8 1015.6 - 0.0
25/03:00am 18.2 17.7 16.0 87 1.3 WSW 13 17 7 9 1015.6 1015.5 0.0
25/02:30am 18.2 17.7 15.8 86 1.4 WSW 13 17 7 9 1015.7 - 0.0
25/02:00am 18.1 17.5 15.7 86 1.4 WSW 13 15 7 8 1015.8 - 0.0
25/01:30am 18.1 17.5 15.7 86 1.4 WSW 13 15 7 8 1016.0 - 0.0
25/01:00am 18.3 17.8 15.9 86 1.4 WSW 13 15 7 8 1016.3 - 0.0
25/12:30am 18.8 18.6 16.6 87 1.3 WSW 13 15 7 8 1016.4 - 0.0
25/12:00am 18.9 19.3 16.3 85 1.6 WSW 9 11 5 6 1016.5 1016.4 0.0
 
Date/Time
EST
Temp
°C
App
Temp
°C
Dew
Point
Rel
Hum
%
Delta-T
°C
Wind Press
QNH
hPa
Press
MSL
hPa
Rain
since 9 am
mm
Dir
 
Spd
km/h
Gust
km/h
Spd
kts
Gust
kts
24/11:30pm 19.3 19.8 16.5 84 1.7 W 9 11 5 6 1016.4 - 0.0
24/11:00pm 19.7 20.3 16.7 83 1.8 W 9 11 5 6 1016.7 - 0.0
24/10:30pm 20.1 20.4 16.9 82 1.9 W 11 13 6 7 1016.7 - 0.0
24/10:00pm 20.0 20.6 16.8 82 1.9 W 9 11 5 6 1016.7 - 0.0
24/09:30pm 20.4 21.2 17.2 82 2.0 W 9 11 5 6 1016.4 - 0.0
24/09:00pm 20.8 21.6 17.4 81 2.1 NW 9 11 5 6 1016.4 1016.3 0.0
24/08:30pm 21.3 22.7 17.7 80 2.2 NNW 7 9 4 5 1016.4 - 0.0
24/08:00pm 22.1 22.3 17.7 76 2.7 NNE 13 17 7 9 1016.4 - 0.0
24/07:30pm 23.1 23.1 18.2 74 3.1 NE 15 19 8 10 1016.0 - 0.0
24/07:00pm 23.4 22.6 18.1 72 3.3 NE 19 20 10 11 1015.9 - 0.0
24/06:30pm 23.5 22.7 17.9 71 3.5 NE 19 22 10 12 1015.3 - 0.0
24/06:00pm 23.5 22.5 17.9 71 3.5 NNE 20 24 11 13 1014.9 1014.8 0.0
24/05:30pm 23.7 22.2 16.7 65 4.3 NNE 20 24 11 13 1014.3 - 0.0
24/05:00pm 23.9 22.2 16.2 62 4.7 NNE 20 24 11 13 1014.5 - 0.0
24/04:30pm 24.6 23.6 16.6 61 4.9 NNE 17 19 9 10 1014.7 - 0.0
24/04:00pm 25.1 23.9 16.0 57 5.5 NE 17 19 9 10 1014.1 - 0.0
24/03:30pm 25.5 24.2 15.8 55 5.9 NE 17 19 9 10 1014.0 - 0.0
24/03:00pm 25.7 23.9 14.5 50 6.7 ENE 17 19 9 10 1014.1 1014.0 0.0
24/02:30pm 26.0 23.8 12.1 42 8.0 ENE 15 15 8 8 1014.1 - 0.0
24/02:00pm 26.2 25.2 13.3 45 7.6 ENE 11 13 6 7 1014.2 - 0.0
24/01:30pm 26.0 25.6 15.1 51 6.6 ENE 11 13 6 7 1014.4 - 0.0
24/01:00pm 25.8 25.4 16.1 55 5.9 ENE 13 13 7 7 1015.1 - 0.0
24/12:30pm 25.4 24.6 15.1 53 6.2 ENE 13 15 7 8 1015.7 - 0.0
24/12:00pm 25.9 26.0 16.5 56 5.8 E 11 13 6 7 1016.0 1015.9 0.0
24/11:30am 25.7 26.0 16.0 55 5.9 ESE 9 11 5 6 1016.4 - 0.0
24/11:00am 25.9 25.8 15.9 54 6.1 SSE 11 13 6 7 1016.8 - 0.0
24/10:30am 25.6 24.6 15.6 54 6.1 S 15 15 8 8 1016.9 - 0.0
24/10:00am 24.3 23.8 15.8 59 5.2 S 13 15 7 8 1017.3 - 0.0
24/09:30am 22.8 22.7 16.1 66 4.1 SW 11 13 6 7 1017.8 - 0.0
24/09:00am 21.7 22.0 16.0 70 3.4 WSW 9 13 5 7 1018.1 1018.0 0.0
24/08:30am 20.2 19.9 15.4 74 2.8 WSW 11 15 6 8 1017.8 - 0.0
24/08:00am 19.6 19.1 15.0 75 2.7 SW 11 17 6 9 1017.6 - 0.0
24/07:30am 18.2 17.7 14.9 81 1.9 W 11 13 6 7 1017.7 - 0.0
24/07:00am 17.4 16.8 14.7 84 1.6 WSW 11 13 6 7 1017.1 - 0.0
24/06:30am 16.7 16.1 14.5 87 1.3 SW 11 13 6 7 1016.5 - 0.0
24/06:00am 16.8 16.6 14.6 87 1.3 SW 9 13 5 7 1016.3 1016.2 0.0
24/05:30am 16.9 15.9 14.7 87 1.3 SSW 13 15 7 8 1016.1 - 0.0
24/05:00am 16.8 16.2 14.6 87 1.3 SW 11 15 6 8 1015.9 - 0.0
24/04:30am 17.0 16.8 14.8 87 1.3 SW 9 11 5 6 1016.0 - 0.0
24/04:00am 17.2 16.7 15.0 87 1.3 SW 11 15 6 8 1015.7 - 0.0
24/03:30am 17.2 16.7 15.0 87 1.3 SW 11 11 6 6 1015.6 - 0.0
24/03:00am 17.3 16.5 15.1 87 1.3 SW 13 15 7 8 1015.9 1015.8 0.0
24/02:30am 17.4 17.1 15.4 88 1.2 WSW 11 15 6 8 1016.1 - 0.0
24/02:00am 17.8 17.3 15.8 88 1.2 WSW 13 15 7 8 1016.0 - 0.0
24/01:30am 17.8 18.4 15.8 88 1.2 SW 7 9 4 5 1016.3 - 0.0
24/01:00am 18.0 17.8 15.8 87 1.3 SW 11 13 6 7 1016.6 - 0.0
24/12:30am 18.4 20.4 16.0 86 1.4 CALM 0 0 0 0 1017.1 - 0.0
24/12:00am 18.8 19.5 16.2 85 1.5 WSW 7 9 4 5 1017.3 1017.2 0.0
 
Date/Time
EST
Temp
°C
App
Temp
°C
Dew
Point
Rel
Hum
%
Delta-T
°C
Wind Press
QNH
hPa
Press
MSL
hPa
Rain
since 9 am
mm
Dir
 
Spd
km/h
Gust
km/h
Spd
kts
Gust
kts
23/11:30pm 19.0 19.4 16.2 84 1.7 WSW 9 11 5 6 1017.4 - 0.0
23/11:00pm 19.2 19.6 16.2 83 1.8 WSW 9 11 5 6 1017.6 - 0.0
23/10:30pm 19.4 19.8 16.2 82 1.9 W 9 11 5 6 1017.6 - 0.0
23/10:00pm 19.8 19.9 16.4 81 2.0 W 11 13 6 7 1017.8 - 0.0
23/09:30pm 20.2 20.6 16.4 79 2.3 NW 9 11 5 6 1017.8 - 0.0
23/09:00pm 20.5 20.7 16.7 79 2.3 NW 11 15 6 8 1017.7 1017.6 0.0
23/08:30pm 21.2 21.0 16.6 75 2.8 NNW 13 19 7 10 1017.7 - 0.0
23/08:00pm 21.4 21.1 16.4 73 3.0 NNW 13 17 7 9 1017.7 - 0.0
23/07:30pm 22.0 21.5 16.9 73 3.1 NNW 15 20 8 11 1017.6 - 0.0
23/07:00pm 22.9 22.3 17.6 72 3.3 NNE 17 19 9 10 1017.3 - 0.0
23/06:30pm 23.2 22.5 17.4 70 3.6 NNE 17 20 9 11 1017.1 - 0.0
23/06:00pm 23.4 22.1 17.2 68 3.8 NNE 20 24 11 13 1017.0 1016.9 0.0
23/05:30pm 23.5 21.6 16.8 66 4.1 NNE 22 26 12 14 1016.6 - 0.0
23/05:00pm 24.0 21.8 17.0 65 4.3 NNE 24 30 13 16 1016.3 - 0.0
23/04:30pm 24.2 22.5 16.2 61 4.9 NNE 20 22 11 12 1016.0 - 0.0
23/04:00pm 24.7 22.9 15.6 57 5.5 NE 19 22 10 12 1015.8 - 0.0
23/03:30pm 25.1 23.4 15.7 56 5.7 NE 19 22 10 12 1015.9 - 0.0
23/03:00pm 25.3 23.4 15.3 54 6.0 NE 19 20 10 11 1015.7 1015.6 0.0
23/02:30pm 25.7 23.9 14.5 50 6.7 NE 17 20 9 11 1015.9 - 0.0
23/02:00pm 25.7 23.9 13.2 46 7.3 NE 15 19 8 10 1016.0 - 0.0
23/01:30pm 25.8 24.5 14.9 51 6.5 ENE 15 17 8 9 1016.2 - 0.0
23/01:00pm 25.3 23.8 14.1 50 6.6 ENE 15 19 8 10 1016.5 - 0.0
23/12:30pm 25.5 25.0 14.9 52 6.4 ENE 11 15 6 8 1017.1 - 0.0
23/12:00pm 25.5 25.1 16.1 56 5.7 E 13 13 7 7 1017.7 1017.6 0.0
23/11:30am 26.1 25.3 15.2 51 6.6 E 13 17 7 9 1018.3 - 0.0
23/11:00am 25.7 25.8 15.4 53 6.2 SE 9 11 5 6 1018.8 - 0.0
23/10:30am 25.8 25.3 15.8 54 6.1 SSE 13 13 7 7 1019.1 - 0.0
23/10:00am 24.4 23.7 15.3 57 5.5 SSE 13 15 7 8 1019.3 - 0.0
23/09:30am 23.7 23.1 15.7 61 4.8 S 13 15 7 8 1019.7 - 0.0
23/09:00am 22.4 21.7 15.5 65 4.1 S 13 17 7 9 1019.8 1019.7 0.0
23/08:30am 21.3 20.9 15.2 68 3.6 S 11 17 6 9 1019.7 - 0.0
23/08:00am 20.4 19.9 15.8 75 2.7 S 13 17 7 9 1019.8 - 0.0
23/07:30am 18.8 18.3 14.9 78 2.3 SSW 11 15 6 8 1019.9 - 0.0
23/07:00am 17.7 16.8 14.8 83 1.7 SSW 13 15 7 8 1019.5 - 0.0
23/06:30am 17.1 17.1 15.1 88 1.2 SSW 9 11 5 6 1019.2 - 0.0
23/06:00am 16.9 17.1 14.7 87 1.3 SW 7 11 4 6 1019.0 1018.9 0.0
23/05:30am 16.9 16.4 14.9 88 1.2 SW 11 13 6 7 1018.9 - 0.0
23/05:00am 16.9 16.4 14.9 88 1.2 WSW 11 13 6 7 1018.8 - 0.0
23/04:30am 17.0 16.5 14.8 87 1.3 WSW 11 13 6 7 1018.3 - 0.0
23/04:00am 17.2 17.5 15.0 87 1.3 WSW 7 9 4 5 1018.2 - 0.0
23/03:30am 17.2 16.7 14.8 86 1.4 WSW 11 13 6 7 1018.0 - 0.0
23/03:00am 17.2 16.6 14.7 85 1.4 WSW 11 15 6 8 1018.2 1018.1 0.0
23/02:30am 17.6 17.9 14.9 84 1.6 WSW 7 9 4 5 1018.5 - 0.0
23/02:00am 17.7 17.5 14.8 83 1.7 WSW 9 11 5 6 1018.6 - 0.0
23/01:30am 17.8 17.7 14.9 83 1.7 W 9 13 5 7 1018.7 - 0.0
23/01:00am 18.0 18.0 15.3 84 1.6 W 9 11 5 6 1019.0 - 0.0
23/12:30am 18.2 17.8 15.3 83 1.7 W 11 11 6 6 1019.2 - 0.0
23/12:00am 18.5 18.5 15.2 81 1.9 W 9 11 5 6 1019.2 1019.1 0.0
 
Date/Time
EST
Temp
°C
App
Temp
°C
Dew
Point
Rel
Hum
%
Delta-T
°C
Wind Press
QNH
hPa
Press
MSL
hPa
Rain
since 9 am
mm
Dir
 
Spd
km/h
Gust
km/h
Spd
kts
Gust
kts
22/11:30pm 18.7 18.2 15.0 79 2.2 W 11 13 6 7 1019.3 - 0.0
22/11:00pm 19.0 19.0 15.1 78 2.3 W 9 11 5 6 1019.4 - 0.0
22/10:30pm 19.1 18.6 14.8 76 2.5 W 11 13 6 7 1019.5 - 0.0
22/10:00pm 20.0 19.5 15.0 73 2.9 WNW 11 13 6 7 1019.8 - 0.0
22/09:30pm 20.1 20.1 15.1 73 2.9 WNW 9 11 5 6 1019.7 - 0.0
22/09:00pm 20.7 20.8 15.5 72 3.1 N 9 13 5 7 1019.9 1019.8 0.0
22/08:30pm 22.7 21.8 15.8 65 4.2 N 15 17 8 9 1020.0 - 0.0
22/08:00pm 22.8 21.3 15.4 63 4.4 NNE 17 20 9 11 1019.9 - 0.0
22/07:30pm 22.9 20.9 15.0 61 4.7 NNE 19 22 10 12 1019.6 - 0.0
22/07:00pm 23.2 20.8 14.5 58 5.1 NE 20 22 11 12 1019.4 - 0.0
22/06:30pm 23.3 21.1 14.3 57 5.3 NNE 19 22 10 12 1019.3 - 0.0
22/06:00pm 23.3 21.2 14.6 58 5.1 NNE 19 20 10 11 1019.1 1019.0 0.0
22/05:30pm 23.3 21.2 14.6 58 5.1 NNE 19 20 10 11 1018.9 - 0.0
22/05:00pm 23.8 21.9 14.2 55 5.7 NE 17 19 9 10 1018.9 - 0.0
22/04:30pm 24.2 22.6 14.9 56 5.6 NE 17 19 9 10 1018.8 - 0.0
22/04:00pm 24.3 22.2 14.7 55 5.7 NE 19 20 10 11 1018.7 - 0.0
22/03:30pm 24.4 23.4 14.5 54 5.9 NE 13 17 7 9 1018.8 - 0.0

Other Formats:

Comma delimited format used in spreadsheet applications
http://www.bom.gov.au/fwo/IDQ60801/IDQ60801.95591.axf

JavaScript Object Notation format (JSON) in row-major order
http://www.bom.gov.au/fwo/IDQ60801/IDQ60801.95591.json